Time;durP1;ratioP1;P1;durP2;ratioP2;P2;SDS_P1;SDS_P2;PMS_P1;PMS_P2;Temp;Humidity;BMP_temperature;BMP_pressure;BME280_temperature;BME280_humidity;BME280_pressure;Samples;Min_cycle;Max_cycle;Signal;HPM_P1;HPM_P2
2022/05/31 00:00:09;;;;;;;;;;;9.30;99.90;;;;;;5085147;28;20123;-66
2022/05/31 00:02:38;;;;;;;;;;;9.30;99.90;;;;;;5085551;28;19920;-66
2022/05/31 00:05:05;;;;;;;;;;;9.30;99.90;;;;;;5085076;28;19920;-66
2022/05/31 00:07:31;;;;;;;;;;;9.20;99.90;;;;;;5084954;28;20203;-66
2022/05/31 00:09:58;;;;;;;;;;;9.20;99.90;;;;;;5085227;28;19920;-66
2022/05/31 00:12:24;;;;;;;;;;;9.10;99.90;;;;;;5085166;28;19932;-66
2022/05/31 00:14:51;;;;;;;;;;;9.10;99.90;;;;;;5084803;28;19927;-66
2022/05/31 00:17:18;;;;;;;;;;;9.10;99.90;;;;;;5081934;28;20208;-66
2022/05/31 00:19:46;;;;;;;;;;;9.00;99.90;;;;;;5084578;28;19920;-66
2022/05/31 00:22:13;;;;;;;;;;;8.90;99.90;;;;;;5085044;28;20112;-67
2022/05/31 00:24:40;;;;;;;;;;;8.90;99.90;;;;;;5084871;28;20234;-67
2022/05/31 00:27:07;;;;;;;;;;;8.90;99.90;;;;;;5084335;28;19920;-67
2022/05/31 00:29:34;;;;;;;;;;;8.90;99.90;;;;;;5084757;28;19983;-67
2022/05/31 00:32:02;;;;;;;;;;;8.80;99.90;;;;;;5084571;28;20208;-67
2022/05/31 00:34:29;;;;;;;;;;;8.80;99.90;;;;;;5084660;28;20141;-66
2022/05/31 00:36:57;;;;;;;;;;;8.70;99.90;;;;;;5084267;28;19943;-66
2022/05/31 00:39:23;;;;;;;;;;;8.70;99.90;;;;;;5084515;28;20219;-66
2022/05/31 00:41:57;;;;;;;;;;;8.70;99.90;;;;;;5084360;28;19920;-67
2022/05/31 00:44:27;;;;;;;;;;;8.70;99.90;;;;;;5084201;28;20189;-67
2022/05/31 00:46:56;;;;;;;;;;;8.70;99.90;;;;;;5083885;28;20223;-67
2022/05/31 00:49:26;;;;;;;;;;;8.60;99.90;;;;;;5084400;28;19920;-66
2022/05/31 00:51:54;;;;;;;;;;;8.60;99.90;;;;;;5084384;28;19928;-66
2022/05/31 00:54:24;;;;;;;;;;;8.50;99.90;;;;;;5084581;28;19920;-66
2022/05/31 00:56:51;;;;;;;;;;;8.50;99.90;;;;;;5083691;28;19988;-66
2022/05/31 00:59:20;;;;;;;;;;;8.40;99.90;;;;;;5084493;28;19920;-66
2022/05/31 01:01:51;;;;;;;;;;;8.30;99.90;;;;;;5083920;28;19927;-66
2022/05/31 01:04:18;;;;;;;;;;;8.30;99.90;;;;;;5083954;28;20208;-66
2022/05/31 01:06:44;;;;;;;;;;;8.20;99.90;;;;;;5083247;28;19924;-66
2022/05/31 01:09:11;;;;;;;;;;;8.20;99.90;;;;;;5083914;28;20230;-66
2022/05/31 01:11:40;;;;;;;;;;;8.20;99.90;;;;;;5083255;28;19920;-66
2022/05/31 01:14:07;;;;;;;;;;;8.20;99.90;;;;;;5083878;28;19924;-67
2022/05/31 01:16:34;;;;;;;;;;;8.20;99.90;;;;;;5083142;28;19920;-66
2022/05/31 01:19:01;;;;;;;;;;;8.10;99.90;;;;;;5083872;28;19926;-66
2022/05/31 01:21:29;;;;;;;;;;;8.10;99.90;;;;;;5083565;28;19920;-66
2022/05/31 01:24:00;;;;;;;;;;;8.00;99.90;;;;;;5083562;28;20112;-66
2022/05/31 01:26:30;;;;;;;;;;;8.00;99.90;;;;;;5082761;28;20211;-66
2022/05/31 01:29:02;;;;;;;;;;;7.90;99.90;;;;;;5083792;28;19966;-66
2022/05/31 01:31:31;;;;;;;;;;;7.90;99.90;;;;;;5083540;28;20208;-66
2022/05/31 01:34:00;;;;;;;;;;;7.90;99.90;;;;;;5083450;28;20153;-66
2022/05/31 01:36:29;;;;;;;;;;;7.80;99.90;;;;;;5082856;28;19920;-66
2022/05/31 01:39:01;;;;;;;;;;;7.80;99.90;;;;;;5083510;28;19921;-66
2022/05/31 01:41:32;;;;;;;;;;;7.80;99.90;;;;;;5083567;28;19920;-66
2022/05/31 01:44:00;;;;;;;;;;;7.80;99.90;;;;;;5083494;28;19927;-66
2022/05/31 01:46:28;;;;;;;;;;;7.80;99.90;;;;;;5082558;28;20120;-66
2022/05/31 01:48:55;;;;;;;;;;;7.80;99.90;;;;;;5063246;28;19944;-66
2022/05/31 01:51:22;;;;;;;;;;;7.80;99.90;;;;;;5063447;28;19920;-66
2022/05/31 01:53:49;;;;;;;;;;;7.80;99.90;;;;;;5063341;28;19928;-66
2022/05/31 01:56:17;;;;;;;;;;;7.70;99.90;;;;;;5072147;28;19927;-66
2022/05/31 01:58:47;;;;;;;;;;;7.70;99.90;;;;;;5083316;28;19920;-66
2022/05/31 02:01:14;;;;;;;;;;;7.60;99.90;;;;;;5082978;28;19932;-66
2022/05/31 02:03:41;;;;;;;;;;;7.60;99.90;;;;;;5083322;28;19928;-66
2022/05/31 02:06:23;;;;;;;;;;;7.60;99.90;;;;;;5082728;28;19925;-66
2022/05/31 02:08:49;;;;;;;;;;;7.60;99.90;;;;;;5083248;28;19943;-66
2022/05/31 02:11:17;;;;;;;;;;;7.60;99.90;;;;;;5083257;28;19928;-66
2022/05/31 02:13:45;;;;;;;;;;;7.50;99.90;;;;;;5082997;28;19927;-66
2022/05/31 02:16:11;;;;;;;;;;;7.50;99.90;;;;;;5082694;28;19983;-66
2022/05/31 02:21:22;;;;;;;;;;;7.40;99.90;;;;;;5082820;28;19966;-66
2022/05/31 02:23:49;;;;;;;;;;;7.30;99.90;;;;;;5085295;22;19927;-66
2022/05/31 02:26:15;;;;;;;;;;;7.20;99.90;;;;;;5062519;28;19921;-66
2022/05/31 02:28:43;;;;;;;;;;;7.20;99.90;;;;;;5058588;28;19921;-66
2022/05/31 02:31:10;;;;;;;;;;;7.10;99.90;;;;;;5066995;28;20096;-66
2022/05/31 02:33:36;;;;;;;;;;;7.00;99.90;;;;;;5066962;28;19921;-67
2022/05/31 02:36:03;;;;;;;;;;;7.00;99.90;;;;;;5066331;28;19929;-67
2022/05/31 02:38:30;;;;;;;;;;;7.00;99.90;;;;;;5066452;28;20208;-67
2022/05/31 02:40:56;;;;;;;;;;;7.00;99.90;;;;;;5061241;28;19921;-66
2022/05/31 02:43:23;;;;;;;;;;;7.00;99.90;;;;;;5065058;28;19975;-66
2022/05/31 02:45:51;;;;;;;;;;;7.00;99.90;;;;;;5066282;28;19920;-66
2022/05/31 02:48:17;;;;;;;;;;;7.00;99.90;;;;;;5066739;28;19921;-66
2022/05/31 02:50:44;;;;;;;;;;;6.90;99.90;;;;;;5066579;28;19967;-66
2022/05/31 02:53:11;;;;;;;;;;;6.90;99.90;;;;;;5066512;28;19927;-66
2022/05/31 02:55:37;;;;;;;;;;;6.90;99.90;;;;;;5066094;28;19927;-66
2022/05/31 02:58:04;;;;;;;;;;;6.90;99.90;;;;;;5065766;28;19929;-66
2022/05/31 03:00:31;;;;;;;;;;;6.90;99.90;;;;;;5066547;28;20212;-66
2022/05/31 03:02:59;;;;;;;;;;;6.90;99.90;;;;;;5062768;28;19928;-66
2022/05/31 03:05:26;;;;;;;;;;;6.80;99.90;;;;;;5064725;28;19927;-66
2022/05/31 03:07:53;;;;;;;;;;;6.80;99.90;;;;;;5065498;28;19921;-66
2022/05/31 03:10:19;;;;;;;;;;;6.80;99.90;;;;;;5066386;28;20199;-66
2022/05/31 03:12:47;;;;;;;;;;;6.80;99.90;;;;;;5066438;28;20115;-66
2022/05/31 03:15:15;;;;;;;;;;;6.80;99.90;;;;;;5065970;28;20097;-66
2022/05/31 03:17:44;;;;;;;;;;;6.80;99.90;;;;;;5065788;28;19927;-66
2022/05/31 03:20:14;;;;;;;;;;;6.80;99.90;;;;;;5065722;28;19920;-66
2022/05/31 03:22:42;;;;;;;;;;;6.70;99.90;;;;;;5065881;28;19935;-66
2022/05/31 03:25:12;;;;;;;;;;;6.60;99.90;;;;;;5066067;28;19999;-66
2022/05/31 03:27:39;;;;;;;;;;;6.60;99.90;;;;;;5065782;28;20169;-66
2022/05/31 03:30:06;;;;;;;;;;;6.60;99.90;;;;;;5065178;28;19925;-65
2022/05/31 03:32:34;;;;;;;;;;;6.50;99.90;;;;;;5065896;28;19920;-66
2022/05/31 03:35:00;;;;;;;;;;;6.50;99.90;;;;;;5065752;28;19943;-66
2022/05/31 03:37:28;;;;;;;;;;;6.50;99.90;;;;;;5065592;28;19921;-66
2022/05/31 03:39:55;;;;;;;;;;;6.50;99.90;;;;;;5065289;28;19927;-67
2022/05/31 03:42:21;;;;;;;;;;;6.50;99.90;;;;;;5065404;28;19927;-66
2022/05/31 03:44:48;;;;;;;;;;;6.50;99.90;;;;;;5065421;28;20231;-66
2022/05/31 03:47:14;;;;;;;;;;;6.50;99.90;;;;;;5064761;28;20220;-66
2022/05/31 03:49:41;;;;;;;;;;;6.40;99.90;;;;;;5065415;28;20227;-66
2022/05/31 03:52:08;;;;;;;;;;;6.40;99.90;;;;;;5065652;28;20348;-66
2022/05/31 03:54:37;;;;;;;;;;;6.30;99.90;;;;;;5065398;28;19920;-66
2022/05/31 03:57:04;;;;;;;;;;;6.30;99.90;;;;;;5062960;28;19920;-66
2022/05/31 03:59:35;;;;;;;;;;;6.30;99.90;;;;;;5064683;28;20115;-66
2022/05/31 04:02:01;;;;;;;;;;;6.30;99.90;;;;;;5065002;28;20231;-66
2022/05/31 04:04:28;;;;;;;;;;;6.40;99.90;;;;;;5063750;28;20171;-66
2022/05/31 04:06:54;;;;;;;;;;;6.40;99.90;;;;;;5064759;28;20204;-66
2022/05/31 04:09:21;;;;;;;;;;;6.40;99.90;;;;;;5064104;28;19920;-66
2022/05/31 04:11:49;;;;;;;;;;;6.40;99.90;;;;;;5064792;28;19921;-66
2022/05/31 04:14:16;;;;;;;;;;;6.40;99.90;;;;;;5063568;28;20128;-66
2022/05/31 04:16:42;;;;;;;;;;;6.50;99.90;;;;;;5064685;28;19935;-66
2022/05/31 04:19:09;;;;;;;;;;;6.50;99.90;;;;;;5065146;28;19927;-66
2022/05/31 04:21:37;;;;;;;;;;;6.60;99.90;;;;;;5065014;28;19921;-66
2022/05/31 04:24:08;;;;;;;;;;;6.70;99.90;;;;;;5064255;28;19920;-66
2022/05/31 04:26:37;;;;;;;;;;;6.80;99.90;;;;;;5056232;28;20183;-66
2022/05/31 04:29:05;;;;;;;;;;;6.90;99.90;;;;;;5062890;28;19921;-66
2022/05/31 04:31:32;;;;;;;;;;;6.90;99.90;;;;;;5064758;28;20200;-66
2022/05/31 04:33:58;;;;;;;;;;;6.90;99.90;;;;;;5064838;28;19943;-66
2022/05/31 04:36:25;;;;;;;;;;;7.10;99.90;;;;;;5064454;28;19921;-66
2022/05/31 04:38:53;;;;;;;;;;;7.20;99.90;;;;;;5062984;28;20397;-67
2022/05/31 04:41:21;;;;;;;;;;;7.30;99.90;;;;;;5064434;28;19928;-66
2022/05/31 04:43:48;;;;;;;;;;;7.40;99.90;;;;;;5064270;28;19925;-66
2022/05/31 04:46:17;;;;;;;;;;;7.50;99.90;;;;;;5061386;28;19925;-66
2022/05/31 04:48:44;;;;;;;;;;;7.70;99.90;;;;;;5060713;28;20100;-66
2022/05/31 04:51:11;;;;;;;;;;;7.70;99.90;;;;;;5062932;28;19939;-67
2022/05/31 04:53:37;;;;;;;;;;;7.80;99.90;;;;;;5061915;28;19920;-67
2022/05/31 04:56:06;;;;;;;;;;;7.90;99.90;;;;;;5057567;28;19921;-66
2022/05/31 04:58:33;;;;;;;;;;;8.10;99.90;;;;;;5063605;28;19944;-66
2022/05/31 05:01:01;;;;;;;;;;;8.20;99.90;;;;;;5064050;28;20069;-67
2022/05/31 05:03:30;;;;;;;;;;;8.20;99.90;;;;;;5064093;28;19959;-66
2022/05/31 05:06:00;;;;;;;;;;;8.30;99.90;;;;;;5063644;28;20147;-67
2022/05/31 05:08:27;;;;;;;;;;;8.40;99.90;;;;;;5063699;28;20105;-67
2022/05/31 05:10:54;;;;;;;;;;;8.50;99.90;;;;;;5059368;28;19921;-66
2022/05/31 05:13:20;;;;;;;;;;;8.60;99.90;;;;;;5063701;28;20226;-66
2022/05/31 05:15:48;;;;;;;;;;;8.80;99.90;;;;;;5054785;28;19925;-66
2022/05/31 05:18:15;;;;;;;;;;;9.00;99.90;;;;;;5064228;28;19928;-66
2022/05/31 05:20:43;;;;;;;;;;;9.20;99.90;;;;;;5064044;28;20215;-67
2022/05/31 05:23:09;;;;;;;;;;;9.30;99.90;;;;;;5064211;28;20111;-66
2022/05/31 05:25:36;;;;;;;;;;;9.50;99.90;;;;;;5062020;28;19927;-66
2022/05/31 05:30:38;;;;;;;;;;;9.60;99.90;;;;;;5065436;28;20090;-67
2022/05/31 05:30:49;;;;;;;;;;;9.80;99.90;;;;;;5059043;28;20220;-64
2022/05/31 05:33:15;;;;;;;;;;;9.90;99.90;;;;;;5045313;28;19924;-64
2022/05/31 05:35:43;;;;;;;;;;;10.10;99.90;;;;;;5061256;28;20159;-65
2022/05/31 05:38:10;;;;;;;;;;;10.20;99.90;;;;;;5062470;28;19920;-65
2022/05/31 05:40:37;;;;;;;;;;;10.30;99.90;;;;;;5063091;28;19920;-66
2022/05/31 05:43:06;;;;;;;;;;;10.40;99.90;;;;;;5062703;28;20173;-65
2022/05/31 05:45:32;;;;;;;;;;;10.40;99.90;;;;;;5061226;28;20121;-65
2022/05/31 05:47:59;;;;;;;;;;;10.60;99.90;;;;;;5067882;28;20263;-66
2022/05/31 05:50:26;;;;;;;;;;;10.60;99.90;;;;;;5062323;28;20227;-65
2022/05/31 05:52:57;;;;;;;;;;;10.80;99.90;;;;;;5060720;28;20150;-65
2022/05/31 05:55:23;;;;;;;;;;;10.90;99.90;;;;;;5060720;28;20212;-65
2022/05/31 05:57:50;;;;;;;;;;;10.90;99.90;;;;;;5062756;28;20143;-65
2022/05/31 06:00:16;;;;;;;;;;;11.10;99.90;;;;;;5062425;28;19921;-68
2022/05/31 06:02:46;;;;;;;;;;;11.20;99.90;;;;;;5062736;28;19927;-66
2022/05/31 06:05:14;;;;;;;;;;;11.20;99.90;;;;;;5053179;28;20230;-66
2022/05/31 06:07:43;;;;;;;;;;;11.30;99.90;;;;;;5063684;28;19928;-67
2022/05/31 06:10:14;;;;;;;;;;;11.30;99.90;;;;;;5059099;28;19927;-66
2022/05/31 06:12:43;;;;;;;;;;;11.40;99.90;;;;;;5061632;28;19988;-66
2022/05/31 06:15:13;;;;;;;;;;;11.50;99.90;;;;;;5063454;28;19943;-66
2022/05/31 06:17:44;;;;;;;;;;;11.70;99.90;;;;;;5062510;28;20267;-67
2022/05/31 06:20:11;;;;;;;;;;;11.80;99.90;;;;;;5063187;28;19921;-65
2022/05/31 06:22:39;;;;;;;;;;;11.80;99.90;;;;;;5063421;28;19943;-66
2022/05/31 06:25:06;;;;;;;;;;;11.90;99.90;;;;;;5060594;28;19921;-66
2022/05/31 06:27:34;;;;;;;;;;;12.00;99.90;;;;;;5063158;28;19921;-66
2022/05/31 06:30:00;;;;;;;;;;;12.00;99.90;;;;;;5063187;28;19920;-66
2022/05/31 06:32:27;;;;;;;;;;;12.10;99.90;;;;;;5062801;28;19920;-66
2022/05/31 06:34:54;;;;;;;;;;;12.20;99.90;;;;;;5062411;28;19921;-66
2022/05/31 06:37:20;;;;;;;;;;;12.20;99.90;;;;;;5062289;28;19920;-66
2022/05/31 06:39:47;;;;;;;;;;;12.30;99.90;;;;;;5062723;28;19921;-66
2022/05/31 06:42:14;;;;;;;;;;;12.30;99.90;;;;;;5062655;28;19921;-66
2022/05/31 06:44:43;;;;;;;;;;;12.50;99.90;;;;;;5062585;28;19928;-66
2022/05/31 06:47:10;;;;;;;;;;;12.60;99.90;;;;;;5062327;28;19927;-66
2022/05/31 06:49:37;;;;;;;;;;;12.60;99.90;;;;;;5062115;28;19920;-66
2022/05/31 06:57:34;;;;;;;;;;;13.00;99.90;;;;;;5062402;28;20218;-66
2022/05/31 07:00:02;;;;;;;;;;;13.10;99.90;;;;;;5062756;28;19944;-66
2022/05/31 07:02:28;;;;;;;;;;;13.10;99.90;;;;;;5043860;28;20090;-65
2022/05/31 07:04:55;;;;;;;;;;;13.10;99.90;;;;;;5042910;28;20117;-65
2022/05/31 07:07:21;;;;;;;;;;;13.20;99.90;;;;;;5058268;28;19927;-65
2022/05/31 07:09:48;;;;;;;;;;;13.20;99.90;;;;;;5063738;28;19921;-66
2022/05/31 07:12:14;;;;;;;;;;;13.30;99.90;;;;;;5066542;28;20089;-65
2022/05/31 07:14:41;;;;;;;;;;;13.40;99.90;;;;;;5065128;28;19980;-65
2022/05/31 07:17:09;;;;;;;;;;;13.50;99.90;;;;;;5066096;28;19921;-65
2022/05/31 07:19:35;;;;;;;;;;;13.70;99.90;;;;;;5065879;28;19928;-65
2022/05/31 07:22:02;;;;;;;;;;;13.80;99.90;;;;;;5065841;28;19936;-65
2022/05/31 07:24:30;;;;;;;;;;;13.90;99.90;;;;;;5065519;28;20200;-65
2022/05/31 07:26:57;;;;;;;;;;;14.00;99.90;;;;;;5064276;28;19920;-67
2022/05/31 07:29:23;;;;;;;;;;;14.20;99.90;;;;;;5062889;28;20023;-65
2022/05/31 07:31:50;;;;;;;;;;;14.20;99.90;;;;;;5065320;28;19921;-65
2022/05/31 07:34:19;;;;;;;;;;;14.30;99.90;;;;;;5065613;28;20096;-65
2022/05/31 07:36:46;;;;;;;;;;;14.50;99.90;;;;;;5064398;28;19936;-66
2022/05/31 07:39:14;;;;;;;;;;;14.60;99.90;;;;;;5064324;28;20097;-65
2022/05/31 07:41:41;;;;;;;;;;;14.70;99.90;;;;;;5065027;28;19928;-65
2022/05/31 07:44:08;;;;;;;;;;;14.90;99.90;;;;;;5065367;28;20235;-64
2022/05/31 07:46:35;;;;;;;;;;;14.90;99.90;;;;;;5064324;28;20117;-65
2022/05/31 07:49:02;;;;;;;;;;;15.00;99.90;;;;;;5065377;28;19921;-65
2022/05/31 07:51:29;;;;;;;;;;;15.10;99.90;;;;;;5065489;28;19920;-66
2022/05/31 07:53:56;;;;;;;;;;;15.10;99.90;;;;;;5065571;28;19928;-64
2022/05/31 07:56:23;;;;;;;;;;;15.20;99.90;;;;;;5064808;28;19928;-65
2022/05/31 07:58:50;;;;;;;;;;;15.30;99.90;;;;;;5065495;28;19928;-65
2022/05/31 08:01:17;;;;;;;;;;;15.40;99.90;;;;;;5065546;28;19921;-66
2022/05/31 08:03:44;;;;;;;;;;;15.40;99.90;;;;;;5064312;28;20127;-65
2022/05/31 08:06:12;;;;;;;;;;;15.60;99.90;;;;;;5065221;28;19920;-65
2022/05/31 08:08:40;;;;;;;;;;;15.70;99.90;;;;;;5045652;28;19928;-65
2022/05/31 08:11:09;;;;;;;;;;;15.90;99.90;;;;;;5045753;28;20177;-66
2022/05/31 08:13:36;;;;;;;;;;;16.10;99.90;;;;;;5045387;28;19921;-65
2022/05/31 08:16:07;;;;;;;;;;;16.10;99.90;;;;;;5045017;28;19943;-65
2022/05/31 08:18:34;;;;;;;;;;;16.20;99.90;;;;;;5045130;28;19932;-65
2022/05/31 08:21:01;;;;;;;;;;;16.30;99.90;;;;;;5044599;28;19921;-65
2022/05/31 08:23:28;;;;;;;;;;;16.40;99.90;;;;;;5045275;28;19925;-65
2022/05/31 08:25:56;;;;;;;;;;;16.50;99.90;;;;;;5044525;28;19921;-68
2022/05/31 08:28:23;;;;;;;;;;;16.50;99.90;;;;;;5045063;28;19921;-67
2022/05/31 08:30:51;;;;;;;;;;;16.60;99.90;;;;;;5044972;28;19935;-67
2022/05/31 08:33:17;;;;;;;;;;;16.70;99.90;;;;;;5060810;28;19929;-67
2022/05/31 08:35:44;;;;;;;;;;;16.70;99.90;;;;;;5063983;28;19967;-67
2022/05/31 08:38:10;;;;;;;;;;;16.80;99.90;;;;;;5062246;28;19939;-67
2022/05/31 08:40:40;;;;;;;;;;;16.90;99.90;;;;;;5062983;28;20238;-68
2022/05/31 08:43:09;;;;;;;;;;;17.00;99.90;;;;;;5060274;28;20147;-67
2022/05/31 08:45:41;;;;;;;;;;;17.20;99.90;;;;;;5063302;28;19928;-68
2022/05/31 08:48:10;;;;;;;;;;;17.20;99.90;;;;;;5066577;28;19920;-68
2022/05/31 08:53:26;;;;;;;;;;;17.40;99.90;;;;;;5068143;28;19955;-67
2022/05/31 08:58:45;;;;;;;;;;;17.60;99.90;;;;;;5072757;28;20155;-68
2022/05/31 09:01:14;;;;;;;;;;;17.60;99.90;;;;;;5070485;28;19992;-67
2022/05/31 09:03:42;;;;;;;;;;;17.70;99.90;;;;;;5071779;28;19995;-67
2022/05/31 09:06:11;;;;;;;;;;;17.80;99.90;;;;;;5073408;28;20093;-68
2022/05/31 09:08:39;;;;;;;;;;;17.90;99.90;;;;;;5072610;28;19980;-68
2022/05/31 09:11:11;;;;;;;;;;;18.00;99.90;;;;;;5075508;28;19921;-68
2022/05/31 09:13:41;;;;;;;;;;;18.10;99.90;;;;;;5069887;28;20151;-68
2022/05/31 09:16:12;;;;;;;;;;;18.20;99.90;;;;;;5072417;28;19934;-68
2022/05/31 09:18:42;;;;;;;;;;;18.30;99.90;;;;;;5071603;28;19979;-68
2022/05/31 09:21:16;;;;;;;;;;;18.30;99.90;;;;;;5073807;28;19921;-68
2022/05/31 09:23:45;;;;;;;;;;;18.40;99.90;;;;;;5067752;28;19958;-71
2022/05/31 09:26:16;;;;;;;;;;;18.50;99.90;;;;;;5074640;28;20259;-67
2022/05/31 09:28:46;;;;;;;;;;;18.50;99.90;;;;;;5072204;28;19929;-67
2022/05/31 09:31:19;;;;;;;;;;;18.60;99.90;;;;;;5065940;28;20231;-67
2022/05/31 09:33:51;;;;;;;;;;;18.70;97.70;;;;;;5063290;28;19928;-67
2022/05/31 09:36:21;;;;;;;;;;;18.70;99.00;;;;;;5063791;28;19921;-67
2022/05/31 09:39:02;;;;;;;;;;;18.80;99.40;;;;;;5064112;28;20215;-67
2022/05/31 09:41:31;;;;;;;;;;;18.90;99.40;;;;;;5063908;28;19943;-67
2022/05/31 09:44:02;;;;;;;;;;;19.00;99.80;;;;;;5078299;28;19927;-66
2022/05/31 09:46:33;;;;;;;;;;;19.10;98.10;;;;;;5075558;28;19927;-67
2022/05/31 09:49:00;;;;;;;;;;;19.20;96.90;;;;;;5083544;28;19921;-67
2022/05/31 09:51:29;;;;;;;;;;;19.30;97.40;;;;;;5078941;28;20142;-67
2022/05/31 09:59:25;;;;;;;;;;;19.60;97.30;;;;;;5052525;28;19924;-67
2022/05/31 10:01:53;;;;;;;;;;;19.70;96.80;;;;;;5075199;28;19920;-67
2022/05/31 10:04:25;;;;;;;;;;;19.80;98.50;;;;;;5043211;28;19960;-66
2022/05/31 10:06:57;;;;;;;;;;;20.00;98.90;;;;;;5043468;28;19921;-67
2022/05/31 10:09:30;;;;;;;;;;;20.20;98.30;;;;;;5061650;28;19927;-67
2022/05/31 10:12:05;;;;;;;;;;;20.30;97.20;;;;;;5064308;28;19921;-66
2022/05/31 10:14:32;;;;;;;;;;;20.30;98.00;;;;;;5075662;28;19921;-67
2022/05/31 10:17:13;;;;;;;;;;;20.50;97.40;;;;;;5042958;28;19921;-67
2022/05/31 10:19:40;;;;;;;;;;;20.60;97.70;;;;;;5043514;28;19921;-67
2022/05/31 10:22:15;;;;;;;;;;;20.70;98.30;;;;;;5057751;28;19920;-66
2022/05/31 10:24:42;;;;;;;;;;;20.80;97.20;;;;;;5062829;28;19962;-67
2022/05/31 10:27:11;;;;;;;;;;;21.00;97.90;;;;;;5062996;28;19927;-67
2022/05/31 10:29:41;;;;;;;;;;;21.10;97.30;;;;;;5062415;28;19921;-67
2022/05/31 10:32:27;;;;;;;;;;;21.20;96.00;;;;;;5063167;28;19920;-67
2022/05/31 10:35:07;;;;;;;;;;;21.20;96.60;;;;;;5043500;28;19921;-67
2022/05/31 10:37:33;;;;;;;;;;;21.30;96.30;;;;;;5042865;28;19921;-66
2022/05/31 10:40:01;;;;;;;;;;;21.30;95.80;;;;;;5042945;28;20119;-67
2022/05/31 10:42:28;;;;;;;;;;;21.40;95.70;;;;;;5052573;28;19921;-66
2022/05/31 10:44:58;;;;;;;;;;;21.40;96.20;;;;;;5058827;28;19920;-67
2022/05/31 10:47:26;;;;;;;;;;;21.40;95.80;;;;;;5066648;28;19956;-67
2022/05/31 10:49:53;;;;;;;;;;;21.50;94.10;;;;;;5067308;28;19921;-67
2022/05/31 10:52:22;;;;;;;;;;;21.50;94.80;;;;;;5068547;28;19921;-67
2022/05/31 10:54:55;;;;;;;;;;;21.60;95.40;;;;;;5080761;28;19966;-67
2022/05/31 10:57:29;;;;;;;;;;;21.60;95.30;;;;;;5066473;28;19924;-67
2022/05/31 11:00:02;;;;;;;;;;;21.60;94.70;;;;;;5070964;28;19928;-67
2022/05/31 11:02:52;;;;;;;;;;;21.60;94.80;;;;;;5086754;28;19983;-66
2022/05/31 11:05:21;;;;;;;;;;;21.70;95.70;;;;;;5061835;28;19920;-66
2022/05/31 11:13:26;;;;;;;;;;;22.20;93.00;;;;;;5067406;28;20187;-67
2022/05/31 11:15:55;;;;;;;;;;;22.10;93.30;;;;;;5083701;28;19921;-67
2022/05/31 11:18:41;;;;;;;;;;;22.00;93.60;;;;;;5082190;28;19921;-67
2022/05/31 11:21:13;;;;;;;;;;;21.90;93.60;;;;;;5058666;28;19988;-67
2022/05/31 11:23:49;;;;;;;;;;;21.80;94.20;;;;;;5055797;28;19925;-67
2022/05/31 11:26:32;;;;;;;;;;;21.60;94.50;;;;;;5052555;28;19927;-67
2022/05/31 11:29:07;;;;;;;;;;;21.50;94.40;;;;;;5063611;28;19933;-67
2022/05/31 11:31:40;;;;;;;;;;;21.50;93.70;;;;;;5066339;28;19983;-67
2022/05/31 11:34:17;;;;;;;;;;;21.30;93.20;;;;;;5062745;28;20120;-66
2022/05/31 11:36:49;;;;;;;;;;;21.30;93.60;;;;;;5065575;28;19921;-66
2022/05/31 11:39:23;;;;;;;;;;;21.60;96.00;;;;;;5078167;28;19920;-67
2022/05/31 11:42:03;;;;;;;;;;;21.90;94.10;;;;;;5086148;28;19927;-67
2022/05/31 11:44:41;;;;;;;;;;;22.30;92.90;;;;;;5086032;28;19954;-67
2022/05/31 11:47:14;;;;;;;;;;;22.40;93.40;;;;;;5045434;28;19927;-65
2022/05/31 11:49:47;;;;;;;;;;;22.80;95.10;;;;;;5046402;28;19928;-65
2022/05/31 11:52:17;;;;;;;;;;;23.20;93.90;;;;;;5057051;28;19928;-65
2022/05/31 11:57:48;;;;;;;;;;;23.90;92.20;;;;;;5051360;28;19951;-66
2022/05/31 12:00:15;;;;;;;;;;;24.10;91.60;;;;;;5047209;28;19928;-66
2022/05/31 12:02:46;;;;;;;;;;;24.00;89.70;;;;;;5085389;28;19956;-66
2022/05/31 12:05:15;;;;;;;;;;;23.90;91.10;;;;;;5084250;28;19921;-66
2022/05/31 12:07:46;;;;;;;;;;;23.60;90.50;;;;;;5085212;28;19924;-66
2022/05/31 12:10:14;;;;;;;;;;;23.20;90.80;;;;;;5075878;28;20284;-65
2022/05/31 12:12:42;;;;;;;;;;;23.00;91.60;;;;;;5076438;28;19921;-66
2022/05/31 12:15:11;;;;;;;;;;;22.90;92.90;;;;;;5064330;28;19921;-65
2022/05/31 12:17:41;;;;;;;;;;;22.80;91.40;;;;;;5067990;28;19964;-66
2022/05/31 12:20:11;;;;;;;;;;;23.00;91.90;;;;;;5080246;28;19928;-65
2022/05/31 12:22:42;;;;;;;;;;;23.30;91.70;;;;;;5069922;28;19920;-65
2022/05/31 12:25:11;;;;;;;;;;;23.60;92.00;;;;;;5069583;28;19921;-64
2022/05/31 12:27:41;;;;;;;;;;;23.90;93.40;;;;;;5073039;28;19998;-66
2022/05/31 12:30:16;;;;;;;;;;;24.30;91.40;;;;;;5064646;28;20048;-66
2022/05/31 12:32:44;;;;;;;;;;;24.60;90.70;;;;;;5065427;28;19995;-66
2022/05/31 12:35:31;;;;;;;;;;;24.50;89.90;;;;;;5064125;28;19929;-65
2022/05/31 12:38:08;;;;;;;;;;;24.50;90.60;;;;;;5064597;28;19929;-66
2022/05/31 12:40:38;;;;;;;;;;;24.40;91.80;;;;;;5071205;28;19956;-65
2022/05/31 12:43:06;;;;;;;;;;;24.50;90.90;;;;;;5075893;28;20111;-65
2022/05/31 12:45:40;;;;;;;;;;;24.40;90.30;;;;;;5071326;28;19943;-65
2022/05/31 12:48:16;;;;;;;;;;;24.10;90.30;;;;;;5064340;28;19921;-66
2022/05/31 12:50:51;;;;;;;;;;;24.00;90.50;;;;;;5064661;28;19929;-67
2022/05/31 12:53:23;;;;;;;;;;;23.70;90.60;;;;;;5064687;28;20195;-66
2022/05/31 12:55:54;;;;;;;;;;;23.60;91.40;;;;;;5063136;28;19927;-65
2022/05/31 12:58:41;;;;;;;;;;;23.50;91.50;;;;;;5064610;28;20243;-65
2022/05/31 13:01:28;;;;;;;;;;;23.40;92.00;;;;;;5063689;28;20109;-65
2022/05/31 13:03:56;;;;;;;;;;;23.20;91.80;;;;;;5057162;28;19921;-66
2022/05/31 13:06:34;;;;;;;;;;;22.90;92.30;;;;;;5062574;28;20020;-66
2022/05/31 13:09:04;;;;;;;;;;;22.70;92.30;;;;;;5062907;28;19921;-66
2022/05/31 13:20:00;;;;;;;;;;;22.40;93.10;;;;;;5063883;28;19923;-66
2022/05/31 13:22:30;;;;;;;;;;;22.40;93.90;;;;;;5064309;28;19928;-66
2022/05/31 13:25:02;;;;;;;;;;;22.50;93.90;;;;;;5063839;28;19924;-66
2022/05/31 13:27:29;;;;;;;;;;;22.60;94.80;;;;;;5063308;28;19920;-65
2022/05/31 13:30:01;;;;;;;;;;;22.70;93.60;;;;;;5062793;28;19925;-66
2022/05/31 13:32:31;;;;;;;;;;;22.80;93.50;;;;;;5063599;28;19921;-66
2022/05/31 13:34:58;;;;;;;;;;;22.80;93.30;;;;;;5063212;28;19927;-63
2022/05/31 13:37:24;;;;;;;;;;;22.70;93.60;;;;;;5063626;28;20242;-66
2022/05/31 13:39:51;;;;;;;;;;;22.70;94.00;;;;;;5063657;28;19920;-65
2022/05/31 13:42:22;;;;;;;;;;;22.70;93.50;;;;;;5063668;28;20116;-66
2022/05/31 13:44:49;;;;;;;;;;;22.70;93.70;;;;;;5043342;28;19921;-65
2022/05/31 13:47:18;;;;;;;;;;;22.80;94.40;;;;;;5042869;28;19928;-66
2022/05/31 13:49:45;;;;;;;;;;;22.90;93.50;;;;;;5043620;28;19955;-66
2022/05/31 13:52:24;;;;;;;;;;;23.00;94.10;;;;;;5063230;28;19921;-65
2022/05/31 13:54:51;;;;;;;;;;;23.20;93.40;;;;;;5063240;28;19929;-65
2022/05/31 13:57:19;;;;;;;;;;;23.20;93.00;;;;;;5063120;28;19935;-66
2022/05/31 13:59:48;;;;;;;;;;;23.20;93.20;;;;;;5063349;28;19921;-66
2022/05/31 14:02:16;;;;;;;;;;;23.30;92.80;;;;;;5053546;28;19944;-66
2022/05/31 14:04:44;;;;;;;;;;;23.30;91.20;;;;;;5043542;28;19921;-66
2022/05/31 14:07:14;;;;;;;;;;;23.20;91.90;;;;;;5061112;28;19921;-66
2022/05/31 14:09:50;;;;;;;;;;;23.40;92.50;;;;;;5058432;28;19931;-66
2022/05/31 14:12:19;;;;;;;;;;;23.70;93.00;;;;;;5059639;28;19920;-66
2022/05/31 14:14:47;;;;;;;;;;;23.80;93.70;;;;;;5062904;28;19921;-66
2022/05/31 14:17:15;;;;;;;;;;;23.90;94.30;;;;;;5062275;28;19920;-65
2022/05/31 14:19:44;;;;;;;;;;;23.70;93.20;;;;;;5065339;28;19921;-65
2022/05/31 14:22:15;;;;;;;;;;;23.70;94.80;;;;;;5067613;28;20175;-65
2022/05/31 14:24:43;;;;;;;;;;;23.70;93.30;;;;;;5085073;23;20154;-91
2022/05/31 14:27:10;;;;;;;;;;;23.80;93.10;;;;;;5083981;28;19981;-90
2022/05/31 14:29:37;;;;;;;;;;;23.70;91.10;;;;;;5112466;22;20257;-65
2022/05/31 14:32:14;;;;;;;;;;;23.60;91.20;;;;;;5106924;28;20211;-66
2022/05/31 14:34:42;;;;;;;;;;;23.60;90.20;;;;;;5089548;28;19928;-65
2022/05/31 14:37:09;;;;;;;;;;;23.20;91.00;;;;;;5076354;28;20131;-65
2022/05/31 14:39:48;;;;;;;;;;;23.20;91.10;;;;;;5080722;28;19940;-65
2022/05/31 14:42:15;;;;;;;;;;;23.00;91.10;;;;;;5066751;28;19928;-66
2022/05/31 14:44:45;;;;;;;;;;;23.00;92.30;;;;;;5066792;28;19927;-65
2022/05/31 14:47:23;;;;;;;;;;;23.00;93.10;;;;;;5086087;28;19921;-65
2022/05/31 14:49:51;;;;;;;;;;;23.00;91.20;;;;;;5084445;28;19921;-65
2022/05/31 14:52:26;;;;;;;;;;;23.00;90.70;;;;;;5080378;28;20118;-66
2022/05/31 14:54:53;;;;;;;;;;;22.90;91.10;;;;;;5080484;28;19974;-65
2022/05/31 14:57:24;;;;;;;;;;;22.90;91.40;;;;;;5081657;28;20179;-66
2022/05/31 14:59:50;;;;;;;;;;;23.00;92.00;;;;;;5077918;28;19920;-65
2022/05/31 15:02:19;;;;;;;;;;;22.90;91.40;;;;;;5075775;28;19931;-66
2022/05/31 15:04:47;;;;;;;;;;;22.70;90.70;;;;;;5080561;28;19929;-67
2022/05/31 15:07:14;;;;;;;;;;;22.60;90.80;;;;;;5077302;28;19939;-66